Terminal Aerodrome Forecast
Issued by NWS

Home | Current Version | Previous Version | Text Only | Print | Product List | Glossary On
Versions: 1 2 3 4 5 6 7 8 9 10 11 12 13 14 15 16 17 18 19 20 21 22
000
FTUS44 KMAF 210800 AAB
TAFHOB
TAF AMD
KHOB 210804Z 2108/2206 20006KT 1/2SM FG OVC001
      TEMPO 2110/2114 2SM BR OVC002
     FM211500 24007KT P6SM SCT020
     FM211800 25014G22KT P6SM FEW200
     FM220000 23008KT P6SM SKC=

USA.gov is the U.S. government's official web portal to all federal, state and local government web resources and services.